sensor_id;sensor_type;location;lat;lon;timestamp;P1;durP1;ratioP1;P2;durP2;ratioP2
80576;SDS011;69937;52.420;10.538;2023-05-16T00:02:40;5.50;;;4.32;;
80576;SDS011;69937;52.420;10.538;2023-05-16T00:07:41;6.90;;;4.80;;
80576;SDS011;69937;52.420;10.538;2023-05-16T00:12:43;6.95;;;4.70;;
80576;SDS011;69937;52.420;10.538;2023-05-16T00:17:44;10.13;;;4.90;;
80576;SDS011;69937;52.420;10.538;2023-05-16T00:22:46;6.13;;;4.65;;
80576;SDS011;69937;52.420;10.538;2023-05-16T00:27:46;6.45;;;4.18;;
80576;SDS011;69937;52.420;10.538;2023-05-16T00:32:47;6.07;;;4.47;;
80576;SDS011;69937;52.420;10.538;2023-05-16T00:37:47;8.55;;;4.38;;
80576;SDS011;69937;52.420;10.538;2023-05-16T00:42:48;5.05;;;4.22;;
80576;SDS011;69937;52.420;10.538;2023-05-16T00:47:50;6.63;;;3.40;;
80576;SDS011;69937;52.420;10.538;2023-05-16T00:52:50;7.22;;;4.20;;
80576;SDS011;69937;52.420;10.538;2023-05-16T00:57:51;4.38;;;3.95;;
80576;SDS011;69937;52.420;10.538;2023-05-16T01:02:52;7.22;;;3.33;;
80576;SDS011;69937;52.420;10.538;2023-05-16T01:07:52;6.25;;;3.65;;
80576;SDS011;69937;52.420;10.538;2023-05-16T01:18:14;4.72;;;3.28;;
80576;SDS011;69937;52.420;10.538;2023-05-16T01:23:45;3.85;;;3.22;;
80576;SDS011;69937;52.420;10.538;2023-05-16T01:28:52;4.47;;;2.83;;
80576;SDS011;69937;52.420;10.538;2023-05-16T01:33:53;6.50;;;3.40;;
80576;SDS011;69937;52.420;10.538;2023-05-16T01:39:06;2.70;;;2.40;;
80576;SDS011;69937;52.420;10.538;2023-05-16T01:44:16;5.07;;;2.92;;
80576;SDS011;69937;52.420;10.538;2023-05-16T01:49:27;4.95;;;2.75;;
80576;SDS011;69937;52.420;10.538;2023-05-16T01:54:52;5.75;;;3.25;;
80576;SDS011;69937;52.420;10.538;2023-05-16T01:59:56;7.93;;;3.10;;
80576;SDS011;69937;52.420;10.538;2023-05-16T02:04:58;4.40;;;2.97;;
80576;SDS011;69937;52.420;10.538;2023-05-16T02:09:58;7.70;;;2.67;;
80576;SDS011;69937;52.420;10.538;2023-05-16T02:14:59;8.35;;;3.35;;
80576;SDS011;69937;52.420;10.538;2023-05-16T02:19:59;4.90;;;2.47;;
80576;SDS011;69937;52.420;10.538;2023-05-16T02:25:05;6.47;;;2.53;;
80576;SDS011;69937;52.420;10.538;2023-05-16T02:30:08;4.07;;;3.03;;
80576;SDS011;69937;52.420;10.538;2023-05-16T02:35:10;7.28;;;2.42;;
80576;SDS011;69937;52.420;10.538;2023-05-16T02:40:11;3.78;;;2.83;;
80576;SDS011;69937;52.420;10.538;2023-05-16T02:45:11;3.28;;;2.65;;
80576;SDS011;69937;52.420;10.538;2023-05-16T02:50:12;5.82;;;2.97;;
80576;SDS011;69937;52.420;10.538;2023-05-16T02:55:13;4.38;;;2.70;;
80576;SDS011;69937;52.420;10.538;2023-05-16T03:00:13;5.80;;;3.83;;
80576;SDS011;69937;52.420;10.538;2023-05-16T03:05:14;4.05;;;2.50;;
80576;SDS011;69937;52.420;10.538;2023-05-16T03:10:15;2.55;;;2.35;;
80576;SDS011;69937;52.420;10.538;2023-05-16T03:15:16;5.15;;;4.40;;
80576;SDS011;69937;52.420;10.538;2023-05-16T03:20:17;4.55;;;2.55;;
80576;SDS011;69937;52.420;10.538;2023-05-16T03:25:18;4.35;;;3.92;;
80576;SDS011;69937;52.420;10.538;2023-05-16T03:30:18;5.05;;;3.00;;
80576;SDS011;69937;52.420;10.538;2023-05-16T03:35:19;3.97;;;2.38;;
80576;SDS011;69937;52.420;10.538;2023-05-16T03:40:19;5.55;;;2.47;;
80576;SDS011;69937;52.420;10.538;2023-05-16T03:45:20;3.83;;;2.95;;
80576;SDS011;69937;52.420;10.538;2023-05-16T03:50:21;5.50;;;2.30;;
80576;SDS011;69937;52.420;10.538;2023-05-16T03:55:21;4.88;;;2.50;;
80576;SDS011;69937;52.420;10.538;2023-05-16T04:00:22;4.72;;;2.60;;
80576;SDS011;69937;52.420;10.538;2023-05-16T04:05:22;8.68;;;4.30;;
80576;SDS011;69937;52.420;10.538;2023-05-16T04:10:23;3.28;;;2.22;;
80576;SDS011;69937;52.420;10.538;2023-05-16T04:15:23;4.25;;;3.47;;
80576;SDS011;69937;52.420;10.538;2023-05-16T04:20:24;4.90;;;3.25;;
80576;SDS011;69937;52.420;10.538;2023-05-16T04:25:25;2.80;;;2.53;;
80576;SDS011;69937;52.420;10.538;2023-05-16T04:30:25;5.38;;;2.75;;
80576;SDS011;69937;52.420;10.538;2023-05-16T04:35:26;4.53;;;2.58;;
80576;SDS011;69937;52.420;10.538;2023-05-16T04:40:27;3.15;;;2.63;;
80576;SDS011;69937;52.420;10.538;2023-05-16T04:45:28;3.20;;;2.70;;
80576;SDS011;69937;52.420;10.538;2023-05-16T04:50:28;3.08;;;2.35;;
80576;SDS011;69937;52.420;10.538;2023-05-16T04:55:29;4.65;;;3.75;;
80576;SDS011;69937;52.420;10.538;2023-05-16T05:00:30;3.50;;;2.15;;
80576;SDS011;69937;52.420;10.538;2023-05-16T05:05:30;7.00;;;2.80;;
80576;SDS011;69937;52.420;10.538;2023-05-16T05:10:31;6.03;;;3.25;;
80576;SDS011;69937;52.420;10.538;2023-05-16T05:15:31;6.05;;;2.08;;
80576;SDS011;69937;52.420;10.538;2023-05-16T05:20:32;7.47;;;2.47;;
80576;SDS011;69937;52.420;10.538;2023-05-16T05:25:33;3.60;;;1.85;;
80576;SDS011;69937;52.420;10.538;2023-05-16T05:30:35;4.78;;;2.67;;
80576;SDS011;69937;52.420;10.538;2023-05-16T05:35:36;3.65;;;2.28;;
80576;SDS011;69937;52.420;10.538;2023-05-16T05:40:36;4.25;;;2.17;;
80576;SDS011;69937;52.420;10.538;2023-05-16T05:45:37;13.52;;;2.92;;
80576;SDS011;69937;52.420;10.538;2023-05-16T05:50:37;6.93;;;2.08;;
80576;SDS011;69937;52.420;10.538;2023-05-16T05:55:38;9.52;;;2.65;;
80576;SDS011;69937;52.420;10.538;2023-05-16T06:00:41;4.32;;;2.33;;
80576;SDS011;69937;52.420;10.538;2023-05-16T06:05:41;6.80;;;2.80;;
80576;SDS011;69937;52.420;10.538;2023-05-16T06:10:42;9.10;;;2.75;;
80576;SDS011;69937;52.420;10.538;2023-05-16T06:15:42;7.05;;;2.28;;
80576;SDS011;69937;52.420;10.538;2023-05-16T06:20:43;5.70;;;2.47;;
80576;SDS011;69937;52.420;10.538;2023-05-16T06:25:43;5.15;;;2.65;;
80576;SDS011;69937;52.420;10.538;2023-05-16T06:30:44;3.97;;;2.05;;
80576;SDS011;69937;52.420;10.538;2023-05-16T06:35:46;7.00;;;2.90;;
80576;SDS011;69937;52.420;10.538;2023-05-16T06:40:47;7.65;;;3.00;;
80576;SDS011;69937;52.420;10.538;2023-05-16T06:45:48;9.43;;;2.42;;
80576;SDS011;69937;52.420;10.538;2023-05-16T06:50:49;3.85;;;2.45;;
80576;SDS011;69937;52.420;10.538;2023-05-16T06:55:52;11.60;;;4.47;;
80576;SDS011;69937;52.420;10.538;2023-05-16T07:00:53;9.23;;;2.60;;
80576;SDS011;69937;52.420;10.538;2023-05-16T07:05:54;8.63;;;3.00;;
80576;SDS011;69937;52.420;10.538;2023-05-16T07:10:54;10.75;;;2.13;;
80576;SDS011;69937;52.420;10.538;2023-05-16T07:15:55;10.88;;;2.30;;
80576;SDS011;69937;52.420;10.538;2023-05-16T07:20:55;14.55;;;2.80;;
80576;SDS011;69937;52.420;10.538;2023-05-16T07:25:56;6.63;;;2.10;;
80576;SDS011;69937;52.420;10.538;2023-05-16T07:30:57;9.98;;;2.38;;
80576;SDS011;69937;52.420;10.538;2023-05-16T07:35:58;5.93;;;2.60;;
80576;SDS011;69937;52.420;10.538;2023-05-16T07:40:59;10.40;;;2.40;;
80576;SDS011;69937;52.420;10.538;2023-05-16T07:46:00;6.82;;;2.28;;
80576;SDS011;69937;52.420;10.538;2023-05-16T07:51:01;4.60;;;1.92;;
80576;SDS011;69937;52.420;10.538;2023-05-16T07:56:02;4.75;;;1.85;;
80576;SDS011;69937;52.420;10.538;2023-05-16T08:01:03;3.92;;;1.73;;
80576;SDS011;69937;52.420;10.538;2023-05-16T08:06:03;7.43;;;2.05;;
80576;SDS011;69937;52.420;10.538;2023-05-16T08:11:04;8.25;;;2.53;;
80576;SDS011;69937;52.420;10.538;2023-05-16T08:16:05;8.18;;;2.20;;
80576;SDS011;69937;52.420;10.538;2023-05-16T08:21:05;4.32;;;1.95;;
80576;SDS011;69937;52.420;10.538;2023-05-16T08:26:06;3.30;;;1.67;;
80576;SDS011;69937;52.420;10.538;2023-05-16T08:31:06;5.60;;;1.73;;
80576;SDS011;69937;52.420;10.538;2023-05-16T08:36:10;6.57;;;1.95;;
80576;SDS011;69937;52.420;10.538;2023-05-16T08:41:11;5.05;;;1.63;;
80576;SDS011;69937;52.420;10.538;2023-05-16T08:46:11;3.35;;;1.70;;
80576;SDS011;69937;52.420;10.538;2023-05-16T08:51:12;4.22;;;1.33;;
80576;SDS011;69937;52.420;10.538;2023-05-16T08:56:16;7.10;;;1.60;;
80576;SDS011;69937;52.420;10.538;2023-05-16T09:01:17;8.50;;;2.47;;
80576;SDS011;69937;52.420;10.538;2023-05-16T09:06:19;5.50;;;1.65;;
80576;SDS011;69937;52.420;10.538;2023-05-16T09:11:20;5.47;;;1.63;;
80576;SDS011;69937;52.420;10.538;2023-05-16T09:16:21;5.20;;;1.25;;
80576;SDS011;69937;52.420;10.538;2023-05-16T09:21:28;6.90;;;1.55;;
80576;SDS011;69937;52.420;10.538;2023-05-16T09:31:34;6.18;;;1.70;;
80576;SDS011;69937;52.420;10.538;2023-05-16T09:36:37;3.13;;;1.08;;
80576;SDS011;69937;52.420;10.538;2023-05-16T09:41:38;5.72;;;1.35;;
80576;SDS011;69937;52.420;10.538;2023-05-16T09:46:40;5.13;;;1.30;;
80576;SDS011;69937;52.420;10.538;2023-05-16T09:51:42;2.75;;;1.40;;
80576;SDS011;69937;52.420;10.538;2023-05-16T09:56:49;3.45;;;1.42;;
80576;SDS011;69937;52.420;10.538;2023-05-16T10:01:50;4.88;;;1.08;;
80576;SDS011;69937;52.420;10.538;2023-05-16T10:06:54;6.05;;;0.93;;
80576;SDS011;69937;52.420;10.538;2023-05-16T10:11:56;5.45;;;1.00;;
80576;SDS011;69937;52.420;10.538;2023-05-16T10:17:05;6.40;;;0.98;;
80576;SDS011;69937;52.420;10.538;2023-05-16T10:22:06;2.95;;;0.63;;
80576;SDS011;69937;52.420;10.538;2023-05-16T10:27:09;2.97;;;0.77;;
80576;SDS011;69937;52.420;10.538;2023-05-16T10:32:10;6.50;;;1.05;;
80576;SDS011;69937;52.420;10.538;2023-05-16T10:37:12;3.10;;;0.90;;
80576;SDS011;69937;52.420;10.538;2023-05-16T10:42:13;3.95;;;0.70;;
80576;SDS011;69937;52.420;10.538;2023-05-16T10:47:19;2.50;;;0.65;;
80576;SDS011;69937;52.420;10.538;2023-05-16T10:52:20;3.55;;;0.50;;
80576;SDS011;69937;52.420;10.538;2023-05-16T10:57:32;9.40;;;0.73;;
80576;SDS011;69937;52.420;10.538;2023-05-16T11:02:39;4.50;;;0.65;;
80576;SDS011;69937;52.420;10.538;2023-05-16T11:07:40;2.90;;;0.77;;
80576;SDS011;69937;52.420;10.538;2023-05-16T11:12:47;4.72;;;0.80;;
80576;SDS011;69937;52.420;10.538;2023-05-16T11:17:49;2.63;;;0.50;;
80576;SDS011;69937;52.420;10.538;2023-05-16T11:22:49;3.35;;;0.70;;
80576;SDS011;69937;52.420;10.538;2023-05-16T11:27:50;5.50;;;0.75;;
80576;SDS011;69937;52.420;10.538;2023-05-16T11:44:24;2.97;;;0.93;;
80576;SDS011;69937;52.420;10.538;2023-05-16T11:49:31;5.30;;;0.73;;
80576;SDS011;69937;52.420;10.538;2023-05-16T11:55:04;4.35;;;0.35;;
80576;SDS011;69937;52.420;10.538;2023-05-16T12:05:16;2.78;;;0.40;;
80576;SDS011;69937;52.420;10.538;2023-05-16T12:10:17;2.30;;;0.55;;
80576;SDS011;69937;52.420;10.538;2023-05-16T12:15:18;3.65;;;0.50;;
80576;SDS011;69937;52.420;10.538;2023-05-16T12:20:19;4.72;;;0.70;;
80576;SDS011;69937;52.420;10.538;2023-05-16T12:30:31;5.22;;;0.45;;
80576;SDS011;69937;52.420;10.538;2023-05-16T12:35:32;2.30;;;0.60;;
80576;SDS011;69937;52.420;10.538;2023-05-16T12:40:37;5.65;;;0.68;;
80576;SDS011;69937;52.420;10.538;2023-05-16T12:45:38;1.20;;;0.35;;
80576;SDS011;69937;52.420;10.538;2023-05-16T12:50:40;3.65;;;0.30;;
80576;SDS011;69937;52.420;10.538;2023-05-16T12:55:41;3.10;;;0.50;;
80576;SDS011;69937;52.420;10.538;2023-05-16T13:00:42;5.03;;;0.85;;
80576;SDS011;69937;52.420;10.538;2023-05-16T13:05:43;3.72;;;0.50;;
80576;SDS011;69937;52.420;10.538;2023-05-16T13:10:43;9.40;;;0.63;;
80576;SDS011;69937;52.420;10.538;2023-05-16T13:15:44;2.25;;;0.40;;
80576;SDS011;69937;52.420;10.538;2023-05-16T13:20:44;3.50;;;0.65;;
80576;SDS011;69937;52.420;10.538;2023-05-16T13:25:45;4.13;;;0.60;;
80576;SDS011;69937;52.420;10.538;2023-05-16T13:30:49;4.28;;;0.68;;
80576;SDS011;69937;52.420;10.538;2023-05-16T13:35:50;4.95;;;0.68;;
80576;SDS011;69937;52.420;10.538;2023-05-16T13:40:50;8.10;;;1.20;;
80576;SDS011;69937;52.420;10.538;2023-05-16T13:45:51;4.95;;;0.52;;
80576;SDS011;69937;52.420;10.538;2023-05-16T13:50:52;2.50;;;0.55;;
80576;SDS011;69937;52.420;10.538;2023-05-16T13:55:53;1.70;;;0.40;;
80576;SDS011;69937;52.420;10.538;2023-05-16T14:00:53;2.28;;;0.45;;
80576;SDS011;69937;52.420;10.538;2023-05-16T14:05:54;3.08;;;1.02;;
80576;SDS011;69937;52.420;10.538;2023-05-16T14:10:54;4.28;;;1.00;;
80576;SDS011;69937;52.420;10.538;2023-05-16T14:15:55;3.25;;;0.85;;
80576;SDS011;69937;52.420;10.538;2023-05-16T14:20:55;5.07;;;1.15;;
80576;SDS011;69937;52.420;10.538;2023-05-16T14:25:56;2.60;;;0.60;;
80576;SDS011;69937;52.420;10.538;2023-05-16T14:30:57;3.72;;;0.50;;
80576;SDS011;69937;52.420;10.538;2023-05-16T14:35:58;4.03;;;0.63;;
80576;SDS011;69937;52.420;10.538;2023-05-16T14:40:58;2.70;;;0.70;;
80576;SDS011;69937;52.420;10.538;2023-05-16T14:45:59;5.40;;;0.70;;
80576;SDS011;69937;52.420;10.538;2023-05-16T14:50:59;3.13;;;0.70;;
80576;SDS011;69937;52.420;10.538;2023-05-16T14:56:00;3.90;;;1.40;;
80576;SDS011;69937;52.420;10.538;2023-05-16T15:01:01;5.70;;;1.23;;
80576;SDS011;69937;52.420;10.538;2023-05-16T15:06:02;7.15;;;1.27;;
80576;SDS011;69937;52.420;10.538;2023-05-16T15:11:06;4.53;;;0.95;;
80576;SDS011;69937;52.420;10.538;2023-05-16T15:16:07;4.32;;;1.00;;
80576;SDS011;69937;52.420;10.538;2023-05-16T15:21:07;1.77;;;0.63;;
80576;SDS011;69937;52.420;10.538;2023-05-16T15:26:08;4.53;;;1.13;;
80576;SDS011;69937;52.420;10.538;2023-05-16T15:31:09;5.40;;;0.65;;
80576;SDS011;69937;52.420;10.538;2023-05-16T15:36:10;3.33;;;0.40;;
80576;SDS011;69937;52.420;10.538;2023-05-16T15:41:10;2.97;;;0.70;;
80576;SDS011;69937;52.420;10.538;2023-05-16T15:46:11;3.13;;;1.00;;
80576;SDS011;69937;52.420;10.538;2023-05-16T15:51:12;3.65;;;1.02;;
80576;SDS011;69937;52.420;10.538;2023-05-16T15:56:14;2.78;;;0.63;;
80576;SDS011;69937;52.420;10.538;2023-05-16T16:01:15;4.13;;;0.70;;
80576;SDS011;69937;52.420;10.538;2023-05-16T16:06:16;5.53;;;0.88;;
80576;SDS011;69937;52.420;10.538;2023-05-16T16:11:17;2.72;;;0.85;;
80576;SDS011;69937;52.420;10.538;2023-05-16T16:21:21;3.63;;;0.80;;
80576;SDS011;69937;52.420;10.538;2023-05-16T16:26:22;2.50;;;0.60;;
80576;SDS011;69937;52.420;10.538;2023-05-16T16:31:23;1.92;;;0.98;;
80576;SDS011;69937;52.420;10.538;2023-05-16T16:36:24;3.90;;;0.95;;
80576;SDS011;69937;52.420;10.538;2023-05-16T16:41:24;3.75;;;0.77;;
80576;SDS011;69937;52.420;10.538;2023-05-16T16:46:25;4.78;;;0.95;;
80576;SDS011;69937;52.420;10.538;2023-05-16T16:51:27;2.38;;;1.13;;
80576;SDS011;69937;52.420;10.538;2023-05-16T16:56:28;5.43;;;1.50;;
80576;SDS011;69937;52.420;10.538;2023-05-16T17:01:29;3.88;;;1.05;;
80576;SDS011;69937;52.420;10.538;2023-05-16T17:06:30;2.25;;;0.90;;
80576;SDS011;69937;52.420;10.538;2023-05-16T17:11:31;2.70;;;1.38;;
80576;SDS011;69937;52.420;10.538;2023-05-16T17:16:35;3.03;;;0.85;;
80576;SDS011;69937;52.420;10.538;2023-05-16T17:21:37;3.63;;;1.40;;
80576;SDS011;69937;52.420;10.538;2023-05-16T17:26:39;2.17;;;0.98;;
80576;SDS011;69937;52.420;10.538;2023-05-16T17:31:40;3.75;;;1.45;;
80576;SDS011;69937;52.420;10.538;2023-05-16T17:36:40;2.08;;;1.33;;
80576;SDS011;69937;52.420;10.538;2023-05-16T17:41:41;3.22;;;1.33;;
80576;SDS011;69937;52.420;10.538;2023-05-16T17:46:41;3.35;;;1.23;;
80576;SDS011;69937;52.420;10.538;2023-05-16T17:51:46;3.53;;;1.23;;
80576;SDS011;69937;52.420;10.538;2023-05-16T17:56:51;1.63;;;1.05;;
80576;SDS011;69937;52.420;10.538;2023-05-16T18:01:55;4.03;;;1.25;;
80576;SDS011;69937;52.420;10.538;2023-05-16T18:06:58;6.78;;;1.42;;
80576;SDS011;69937;52.420;10.538;2023-05-16T18:12:00;3.25;;;1.42;;
80576;SDS011;69937;52.420;10.538;2023-05-16T18:17:00;3.80;;;1.40;;
80576;SDS011;69937;52.420;10.538;2023-05-16T18:22:01;4.97;;;1.33;;
80576;SDS011;69937;52.420;10.538;2023-05-16T18:27:05;5.05;;;1.77;;
80576;SDS011;69937;52.420;10.538;2023-05-16T18:32:06;3.35;;;1.27;;
80576;SDS011;69937;52.420;10.538;2023-05-16T18:37:07;5.10;;;1.52;;
80576;SDS011;69937;52.420;10.538;2023-05-16T18:42:08;4.68;;;1.73;;
80576;SDS011;69937;52.420;10.538;2023-05-16T18:47:09;3.45;;;1.85;;
80576;SDS011;69937;52.420;10.538;2023-05-16T18:52:10;3.58;;;1.40;;
80576;SDS011;69937;52.420;10.538;2023-05-16T18:57:11;8.30;;;1.75;;
80576;SDS011;69937;52.420;10.538;2023-05-16T19:02:12;5.57;;;2.67;;
80576;SDS011;69937;52.420;10.538;2023-05-16T19:07:12;6.45;;;1.77;;
80576;SDS011;69937;52.420;10.538;2023-05-16T19:12:13;3.33;;;1.30;;
80576;SDS011;69937;52.420;10.538;2023-05-16T19:17:13;7.03;;;2.60;;
80576;SDS011;69937;52.420;10.538;2023-05-16T19:22:14;4.60;;;2.17;;
80576;SDS011;69937;52.420;10.538;2023-05-16T19:27:15;5.15;;;1.92;;
80576;SDS011;69937;52.420;10.538;2023-05-16T19:32:15;6.97;;;1.98;;
80576;SDS011;69937;52.420;10.538;2023-05-16T19:37:16;5.53;;;2.05;;
80576;SDS011;69937;52.420;10.538;2023-05-16T19:42:16;12.05;;;2.45;;
80576;SDS011;69937;52.420;10.538;2023-05-16T19:47:17;6.30;;;2.55;;
80576;SDS011;69937;52.420;10.538;2023-05-16T19:52:18;5.55;;;2.65;;
80576;SDS011;69937;52.420;10.538;2023-05-16T19:57:19;7.28;;;2.55;;
80576;SDS011;69937;52.420;10.538;2023-05-16T20:02:19;5.43;;;2.05;;
80576;SDS011;69937;52.420;10.538;2023-05-16T20:07:20;5.50;;;2.28;;
80576;SDS011;69937;52.420;10.538;2023-05-16T20:12:21;9.65;;;2.22;;
80576;SDS011;69937;52.420;10.538;2023-05-16T20:17:22;4.75;;;2.20;;
80576;SDS011;69937;52.420;10.538;2023-05-16T20:22:23;6.63;;;4.03;;
80576;SDS011;69937;52.420;10.538;2023-05-16T20:27:23;6.15;;;2.45;;
80576;SDS011;69937;52.420;10.538;2023-05-16T20:32:24;5.60;;;2.53;;
80576;SDS011;69937;52.420;10.538;2023-05-16T20:37:24;7.65;;;2.55;;
80576;SDS011;69937;52.420;10.538;2023-05-16T20:42:28;7.35;;;3.03;;
80576;SDS011;69937;52.420;10.538;2023-05-16T20:47:28;5.00;;;3.83;;
80576;SDS011;69937;52.420;10.538;2023-05-16T20:52:29;4.57;;;2.92;;
80576;SDS011;69937;52.420;10.538;2023-05-16T20:57:29;6.03;;;3.05;;
80576;SDS011;69937;52.420;10.538;2023-05-16T21:02:30;5.15;;;2.47;;
80576;SDS011;69937;52.420;10.538;2023-05-16T21:07:30;8.45;;;3.35;;
80576;SDS011;69937;52.420;10.538;2023-05-16T21:12:31;9.93;;;3.25;;
80576;SDS011;69937;52.420;10.538;2023-05-16T21:17:32;5.85;;;2.53;;
80576;SDS011;69937;52.420;10.538;2023-05-16T21:22:32;9.77;;;3.88;;
80576;SDS011;69937;52.420;10.538;2023-05-16T21:27:33;9.38;;;4.05;;
80576;SDS011;69937;52.420;10.538;2023-05-16T21:32:33;5.38;;;3.47;;
80576;SDS011;69937;52.420;10.538;2023-05-16T21:37:34;7.82;;;3.45;;
80576;SDS011;69937;52.420;10.538;2023-05-16T21:42:35;8.48;;;4.03;;
80576;SDS011;69937;52.420;10.538;2023-05-16T21:47:35;6.22;;;3.35;;
80576;SDS011;69937;52.420;10.538;2023-05-16T21:52:36;7.90;;;3.38;;
80576;SDS011;69937;52.420;10.538;2023-05-16T21:57:37;4.63;;;3.70;;
80576;SDS011;69937;52.420;10.538;2023-05-16T22:02:38;6.25;;;3.42;;
80576;SDS011;69937;52.420;10.538;2023-05-16T22:07:38;8.73;;;3.17;;
80576;SDS011;69937;52.420;10.538;2023-05-16T22:12:39;3.83;;;3.00;;
80576;SDS011;69937;52.420;10.538;2023-05-16T22:17:40;5.95;;;4.25;;
80576;SDS011;69937;52.420;10.538;2023-05-16T22:22:40;4.78;;;3.30;;
80576;SDS011;69937;52.420;10.538;2023-05-16T22:27:41;4.70;;;3.25;;
80576;SDS011;69937;52.420;10.538;2023-05-16T22:32:41;4.80;;;3.17;;
80576;SDS011;69937;52.420;10.538;2023-05-16T22:37:44;5.57;;;3.17;;
80576;SDS011;69937;52.420;10.538;2023-05-16T22:42:44;7.47;;;3.65;;
80576;SDS011;69937;52.420;10.538;2023-05-16T22:47:45;7.13;;;3.83;;
80576;SDS011;69937;52.420;10.538;2023-05-16T22:52:46;6.85;;;5.20;;
80576;SDS011;69937;52.420;10.538;2023-05-16T22:57:46;9.02;;;3.67;;
80576;SDS011;69937;52.420;10.538;2023-05-16T23:02:47;9.20;;;4.38;;
80576;SDS011;69937;52.420;10.538;2023-05-16T23:07:47;4.72;;;3.83;;
80576;SDS011;69937;52.420;10.538;2023-05-16T23:12:48;7.80;;;3.35;;
80576;SDS011;69937;52.420;10.538;2023-05-16T23:17:48;5.82;;;3.67;;
80576;SDS011;69937;52.420;10.538;2023-05-16T23:22:49;10.57;;;3.78;;
80576;SDS011;69937;52.420;10.538;2023-05-16T23:27:49;7.65;;;4.03;;
80576;SDS011;69937;52.420;10.538;2023-05-16T23:32:50;5.75;;;3.65;;
80576;SDS011;69937;52.420;10.538;2023-05-16T23:37:50;6.57;;;4.07;;
80576;SDS011;69937;52.420;10.538;2023-05-16T23:42:51;10.32;;;7.03;;
80576;SDS011;69937;52.420;10.538;2023-05-16T23:47:51;9.88;;;3.78;;
80576;SDS011;69937;52.420;10.538;2023-05-16T23:52:52;12.48;;;4.25;;
80576;SDS011;69937;52.420;10.538;2023-05-16T23:57:52;5.65;;;3.88;;
